Time;durP1;ratioP1;P1;durP2;ratioP2;P2;SDS_P1;SDS_P2;PMS_P1;PMS_P2;Temp;Humidity;BMP_temperature;BMP_pressure;BME280_temperature;BME280_humidity;BME280_pressure;Samples;Min_cycle;Max_cycle;Signal;HPM_P1;HPM_P2
2022/04/27 00:00:24;;;;;;;10.82;6.25;;;;;;;7.26;100.00;102389.78;5038498;28;20499;-77
2022/04/27 00:02:59;;;;;;;11.32;6.03;;;;;;;7.23;100.00;102390.56;4993652;28;20049;-77
2022/04/27 00:05:28;;;;;;;8.80;7.03;;;;;;;7.21;100.00;102393.13;5011250;28;20049;-78
2022/04/27 00:07:57;;;;;;;13.32;7.00;;;;;;;7.17;100.00;102391.22;5032452;28;20727;-77
2022/04/27 00:10:25;;;;;;;15.20;7.05;;;;;;;7.10;100.00;102398.75;5026435;28;20033;-77
2022/04/27 00:12:53;;;;;;;10.38;7.00;;;;;;;7.08;100.00;102398.69;5014538;28;20183;-77
2022/04/27 00:15:25;;;;;;;10.18;7.28;;;;;;;7.06;100.00;102396.84;5022511;28;20048;-78
2022/04/27 00:17:53;;;;;;;12.32;7.97;;;;;;;7.06;100.00;102399.47;5022476;28;20057;-78
2022/04/27 00:20:22;;;;;;;10.48;7.22;;;;;;;7.03;100.00;102394.97;5024084;28;20059;-78
2022/04/27 00:22:51;;;;;;;9.05;7.57;;;;;;;7.03;100.00;102394.97;5018060;28;20056;-78
2022/04/27 00:25:19;;;;;;;9.43;6.43;;;;;;;7.01;100.00;102387.06;5015437;28;20038;-78
2022/04/27 00:27:48;;;;;;;10.35;7.53;;;;;;;7.02;100.00;102393.19;5058235;28;20588;-78
2022/04/27 00:30:17;;;;;;;9.75;7.18;;;;;;;7.01;100.00;102386.13;5046089;28;20052;-77
2022/04/27 00:32:45;;;;;;;13.32;7.88;;;;;;;7.00;100.00;102397.47;5045436;28;20147;-78
2022/04/27 00:35:13;;;;;;;10.02;7.18;;;;;;;7.00;100.00;102393.13;5038045;28;20041;-77
2022/04/27 00:37:42;;;;;;;12.25;6.57;;;;;;;7.00;100.00;102395.75;4994767;28;21167;-77
2022/04/27 00:40:11;;;;;;;10.70;6.57;;;;;;;6.99;100.00;102391.34;5049183;28;20056;-78
2022/04/27 00:42:45;;;;;;;9.07;6.45;;;;;;;7.01;100.00;102391.38;5023468;28;20057;-77
2022/04/27 00:45:13;;;;;;;12.80;7.78;;;;;;;7.02;100.00;102396.69;5004813;28;20482;-77
2022/04/27 00:47:42;;;;;;;9.52;7.18;;;;;;;7.04;100.00;102396.75;5041863;28;20049;-77
2022/04/27 00:50:14;;;;;;;11.15;6.43;;;;;;;7.05;100.00;102395.03;5044235;28;20171;-77
2022/04/27 00:52:43;;;;;;;10.27;7.15;;;;;;;7.05;100.00;102397.66;5000534;28;20436;-77
2022/04/27 00:55:12;;;;;;;11.05;6.88;;;;;;;7.03;100.00;102400.19;4994104;28;20525;-77
2022/04/27 00:57:42;;;;;;;10.45;6.78;;;;;;;7.01;100.00;102402.78;5039314;28;20045;-77
2022/04/27 01:00:11;;;;;;;13.32;6.45;;;;;;;7.02;100.00;102395.81;5010715;28;20060;-77
2022/04/27 01:02:40;;;;;;;15.18;7.05;;;;;;;7.02;100.00;102404.56;5051692;22;20605;-78
2022/04/27 01:05:11;;;;;;;9.27;6.28;;;;;;;7.01;100.00;102397.53;5032226;28;20068;-77
2022/04/27 01:07:41;;;;;;;11.60;7.45;;;;;;;7.01;100.00;102402.78;5015464;28;20038;-78
2022/04/27 01:10:11;;;;;;;9.70;7.18;;;;;;;6.97;100.00;102399.94;5004205;28;20053;-77
2022/04/27 01:12:42;;;;;;;11.20;7.15;;;;;;;6.95;100.00;102407.75;5002303;28;20034;-78
2022/04/27 01:15:32;;;;;;;11.68;7.03;;;;;;;6.91;100.00;102399.69;5013027;28;20049;-78
2022/04/27 01:18:01;;;;;;;9.05;6.22;;;;;;;6.90;100.00;102404.06;5002465;28;20592;-78
2022/04/27 01:20:38;;;;;;;17.75;7.70;;;;;;;6.90;100.00;102406.66;5043448;28;20405;-78
2022/04/27 01:23:07;;;;;;;13.65;7.28;;;;;;;6.89;100.00;102407.50;5019615;28;20036;-77
2022/04/27 01:25:52;;;;;;;13.13;6.03;;;;;;;6.90;100.00;102408.38;4970108;28;20052;-78
2022/04/27 01:28:25;;;;;;;12.82;7.50;;;;;;;6.92;100.00;102414.56;5025540;28;20057;-77
2022/04/27 01:31:07;;;;;;;11.57;6.93;;;;;;;6.92;100.00;102410.25;5026253;28;20069;-77
2022/04/27 01:33:37;;;;;;;8.65;6.20;;;;;;;6.93;100.00;102412.03;5022625;28;20389;-78
2022/04/27 01:36:07;;;;;;;11.60;7.15;;;;;;;6.95;100.00;102415.59;5011027;28;20045;-77
2022/04/27 01:38:37;;;;;;;;;;;;;;;6.97;100.00;102420.91;4986681;28;20127;-77
2022/04/27 01:41:06;;;;;;;13.23;7.45;;;;;;;6.97;100.00;102418.28;5004740;28;19921;-77
2022/04/27 01:43:36;;;;;;;10.70;6.47;;;;;;;6.97;100.00;102419.19;5017328;28;20038;-77
2022/04/27 01:46:09;;;;;;;10.20;5.07;;;;;;;6.97;100.00;102416.56;5011585;28;20045;-78
2022/04/27 01:48:39;;;;;;;8.07;6.97;;;;;;;6.98;100.00;102420.09;5001506;28;20054;-77
2022/04/27 01:51:09;;;;;;;11.20;7.45;;;;;;;7.00;100.00;102421.94;4999232;28;20045;-77
2022/04/27 01:56:25;;;;;;;10.27;7.47;;;;;;;7.03;100.00;102416.84;5015099;28;20502;-78
2022/04/27 01:58:54;;;;;;;9.32;6.75;;;;;;;7.06;100.00;102436.16;4998737;28;20307;-78
2022/04/27 02:01:25;;;;;;;11.95;7.68;;;;;;;7.08;100.00;102424.00;5023271;28;20046;-78
2022/04/27 02:03:59;;;;;;;12.32;7.60;;;;;;;7.09;100.00;102426.69;5011367;28;20046;-78
2022/04/27 02:06:29;;;;;;;13.00;7.47;;;;;;;7.12;100.00;102424.19;5034699;28;20406;-78
2022/04/27 02:08:58;;;;;;;11.20;7.43;;;;;;;7.15;100.00;102436.56;5014263;28;20421;-78
2022/04/27 02:11:35;;;;;;;7.38;6.75;;;;;;;7.18;100.00;102428.78;4967982;28;20042;-78
2022/04/27 02:14:06;;;;;;;10.95;7.32;;;;;;;7.21;100.00;102431.56;5044577;28;20132;-77
2022/04/27 02:16:38;;;;;;;13.85;7.68;;;;;;;7.22;100.00;102431.63;5008798;28;20041;-77
2022/04/27 02:19:13;;;;;;;10.85;7.50;;;;;;;7.23;100.00;102425.53;4994745;28;20038;-78
2022/04/27 02:21:43;;;;;;;12.88;7.40;;;;;;;7.24;100.00;102429.09;5006299;28;20041;-78
2022/04/27 02:24:14;;;;;;;14.73;8.77;;;;;;;7.26;100.00;102423.88;5044414;28;20044;-78
2022/04/27 02:26:42;;;;;;;10.02;7.30;;;;;;;7.26;100.00;102424.78;5015209;28;20055;-77
2022/04/27 02:29:11;;;;;;;10.70;7.78;;;;;;;7.28;100.00;102432.69;4979587;28;20045;-78
2022/04/27 02:31:40;;;;;;;14.50;8.00;;;;;;;7.30;100.00;102434.56;5006017;28;20056;-78
2022/04/27 02:34:10;;;;;;;10.98;6.82;;;;;;;7.29;100.00;102440.63;5031656;28;20062;-78
2022/04/27 02:36:39;;;;;;;;;;;;;;;7.29;100.00;102445.00;5010703;28;20045;-77
2022/04/27 02:39:09;;;;;;;8.57;6.40;;;;;;;7.29;100.00;102435.41;5011408;28;19932;-77
2022/04/27 02:41:38;;;;;;;9.32;7.72;;;;;;;7.31;100.00;102444.22;5017710;28;20450;-77
2022/04/27 02:44:08;;;;;;;9.68;7.40;;;;;;;7.31;100.00;102438.97;4987980;28;20053;-77
2022/04/27 02:46:37;;;;;;;11.63;7.88;;;;;;;7.33;100.00;102450.41;5042704;28;20048;-77
2022/04/27 02:51:55;;;;;;;10.48;7.22;;;;;;;7.34;100.00;102457.47;5038254;28;20075;-77
2022/04/27 02:54:46;;;;;;;11.05;7.30;;;;;;;7.34;100.00;102446.09;5027411;28;20040;-78
2022/04/27 02:57:16;;;;;;;11.68;7.63;;;;;;;7.36;100.00;102447.94;5027811;28;20048;-77
2022/04/27 02:59:45;;;;;;;9.63;8.13;;;;;;;7.37;100.00;102449.75;4986335;28;20302;-79
2022/04/27 03:02:15;;;;;;;11.80;7.30;;;;;;;7.38;100.00;102451.53;5044439;28;20075;-77
2022/04/27 03:04:45;;;;;;;16.25;7.05;;;;;;;7.39;100.00;102453.31;5005400;28;20193;-78
2022/04/27 03:07:14;;;;;;;12.07;7.88;;;;;;;7.40;100.00;102455.09;5006136;28;20056;-79
2022/04/27 03:09:51;;;;;;;14.15;7.43;;;;;;;7.41;100.00;102451.66;5022686;28;20049;-78
2022/04/27 03:12:20;;;;;;;10.32;6.57;;;;;;;7.42;100.00;102455.16;5022539;28;20076;-77
2022/04/27 03:14:49;;;;;;;9.75;7.13;;;;;;;7.42;100.00;102453.44;5023109;28;20044;-78
2022/04/27 03:17:18;;;;;;;12.55;7.65;;;;;;;7.42;100.00;102453.44;5012093;28;20049;-78
2022/04/27 03:19:47;;;;;;;11.32;7.47;;;;;;;7.42;100.00;102448.19;5005621;28;20044;-78
2022/04/27 03:22:16;;;;;;;8.43;7.28;;;;;;;7.44;100.00;102450.88;4992521;28;20611;-77
2022/04/27 03:24:44;;;;;;;10.20;7.38;;;;;;;7.42;100.00;102448.19;4996943;28;20404;-78
2022/04/27 03:27:22;;;;;;;11.30;7.25;;;;;;;7.42;100.00;102448.19;5012892;28;20262;-77
2022/04/27 03:29:51;;;;;;;11.32;7.28;;;;;;;7.42;100.00;102457.78;5026625;28;20045;-79
2022/04/27 03:32:20;;;;;;;11.02;7.05;;;;;;;7.40;100.00;102454.22;5001871;28;20037;-78
2022/04/27 03:34:53;;;;;;;9.40;7.50;;;;;;;7.39;100.00;102452.41;5027871;28;20045;-78
2022/04/27 03:37:25;;;;;;;8.50;7.20;;;;;;;7.40;100.00;102456.84;5015070;28;20418;-77
2022/04/27 03:39:54;;;;;;;10.55;6.75;;;;;;;7.40;100.00;102455.09;5025503;28;20037;-78
2022/04/27 03:42:24;;;;;;;9.35;7.10;;;;;;;7.40;100.00;102449.84;4995153;28;20255;-77
2022/04/27 03:45:00;;;;;;;9.10;7.32;;;;;;;7.40;100.00;102456.84;5023030;28;20057;-78
2022/04/27 03:47:34;;;;;;;11.27;8.07;;;;;;;7.40;100.00;102455.09;4962193;28;20710;-78
2022/04/27 03:50:04;;;;;;;11.57;8.32;;;;;;;7.37;100.00;102455.00;5011122;28;20052;-78
2022/04/27 03:52:42;;;;;;;9.45;7.72;;;;;;;7.39;100.00;102455.03;5043530;28;20041;-77
2022/04/27 03:55:12;;;;;;;14.57;7.57;;;;;;;7.38;100.00;102459.38;5016611;28;20516;-78
2022/04/27 03:57:43;;;;;;;11.43;8.00;;;;;;;7.37;100.00;102460.22;5015718;28;20038;-78
2022/04/27 04:00:12;;;;;;;11.38;7.50;;;;;;;7.38;100.00;102461.13;4992892;28;20045;-78
2022/04/27 04:02:49;;;;;;;10.77;7.50;;;;;;;7.37;100.00;102462.84;4982012;28;20052;-78
2022/04/27 04:05:19;;;;;;;10.57;7.28;;;;;;;7.39;100.00;102461.19;4972670;28;20582;-78
2022/04/27 04:07:47;;;;;;;9.20;6.80;;;;;;;7.40;100.00;102460.34;4981248;28;20037;-77
2022/04/27 04:10:16;;;;;;;10.25;7.97;;;;;;;7.40;100.00;102465.59;5044849;28;20437;-77
2022/04/27 04:12:49;;;;;;;15.02;7.32;;;;;;;7.42;100.00;102468.28;5012362;28;20049;-77
2022/04/27 04:15:20;;;;;;;10.00;6.57;;;;;;;7.42;100.00;102469.16;5007971;28;20041;-77
2022/04/27 04:18:00;;;;;;;7.60;6.80;;;;;;;7.40;100.00;102481.31;4998284;28;20095;-78
2022/04/27 04:20:38;;;;;;;10.30;7.05;;;;;;;7.41;100.00;102477.00;5010797;28;20037;-78
2022/04/27 04:23:27;;;;;;;14.18;9.52;;;;;;;7.41;100.00;102484.88;5010838;28;20056;-77
2022/04/27 04:28:57;;;;;;;12.30;6.82;;;;;;;7.40;100.00;102490.94;5038742;28;20047;-78
2022/04/27 04:31:27;;;;;;;8.38;6.38;;;;;;;7.41;100.00;102498.88;5028641;28;20533;-78
2022/04/27 04:34:27;;;;;;;11.02;8.05;;;;;;;7.44;100.00;102495.47;5024886;28;20571;-77
2022/04/27 04:36:56;;;;;;;12.77;7.00;;;;;;;7.45;100.00;102505.16;5024064;28;20037;-78
2022/04/27 04:39:25;;;;;;;8.80;7.18;;;;;;;7.46;100.00;102496.44;4995812;28;20345;-78
2022/04/27 04:41:53;;;;;;;9.20;7.72;;;;;;;7.48;100.00;102501.75;4972564;28;20040;-78
2022/04/27 04:44:22;;;;;;;7.80;6.80;;;;;;;7.50;100.00;102502.69;4974521;28;20256;-77
2022/04/27 04:47:10;;;;;;;7.38;5.32;;;;;;;7.50;100.00;102510.56;5016834;28;20067;-77
2022/04/27 04:49:57;;;;;;;5.72;5.13;;;;;;;7.48;100.00;102505.25;5008316;28;20045;-78
2022/04/27 04:52:52;;;;;;;8.15;4.68;;;;;;;7.51;100.00;102515.88;5008968;28;20387;-77
2022/04/27 04:55:39;;;;;;;9.38;5.03;;;;;;;7.53;100.00;102515.97;5015604;28;20072;-77
2022/04/27 04:58:14;;;;;;;8.63;4.68;;;;;;;7.55;100.00;102522.16;5021523;28;20041;-77
2022/04/27 05:01:18;;;;;;;6.75;4.57;;;;;;;7.59;100.00;102521.47;4945496;29;20375;-78
2022/04/27 05:03:59;;;;;;;5.90;4.07;;;;;;;7.63;100.00;102519.84;5016473;28;20045;-77
2022/04/27 05:06:56;;;;;;;3.90;3.53;;;;;;;7.68;100.00;102527.09;5022064;28;20632;-78
2022/04/27 05:09:40;;;;;;;7.53;4.35;;;;;;;7.71;100.00;102531.56;5003938;28;20040;-77
2022/04/27 05:12:20;;;;;;;6.85;4.13;;;;;;;7.75;100.00;102537.03;5034359;28;20262;-77
2022/04/27 05:14:57;;;;;;;4.57;4.00;;;;;;;7.77;100.00;102534.47;5044734;28;20040;-77
2022/04/27 05:17:53;;;;;;;7.22;3.70;;;;;;;7.81;100.00;102539.00;5017604;28;20037;-78
2022/04/27 05:20:40;;;;;;;6.05;3.67;;;;;;;7.85;100.00;102534.78;5022631;28;20048;-78
2022/04/27 05:23:37;;;;;;;5.60;3.42;;;;;;;7.88;100.00;102545.38;4984415;28;20059;-77
2022/04/27 05:26:24;;;;;;;4.78;3.03;;;;;;;7.89;100.00;102547.19;5020589;28;20497;-77
2022/04/27 05:32:29;;;;;;;4.70;2.75;;;;;;;7.95;100.00;102555.31;5027003;28;20048;-78
2022/04/27 05:35:17;;;;;;;4.95;2.40;;;;;;;7.96;100.00;102554.50;5012669;28;20029;-78
2022/04/27 05:37:57;;;;;;;4.40;2.95;;;;;;;7.99;100.00;102554.59;5000490;28;20041;-78
2022/04/27 05:40:44;;;;;;;4.25;2.65;;;;;;;8.01;100.00;102560.81;5028369;28;20052;-79
2022/04/27 05:43:22;;;;;;;5.35;2.60;;;;;;;8.03;100.00;102564.38;4980215;28;20253;-78
2022/04/27 05:46:08;;;;;;;5.65;2.50;;;;;;;8.07;100.00;102563.72;4991559;28;20145;-78
2022/04/27 05:48:45;;;;;;;4.18;2.50;;;;;;;8.11;100.00;102577.84;5012963;28;20045;-78
2022/04/27 05:51:37;;;;;;;7.38;2.70;;;;;;;8.14;100.00;102578.84;4967441;28;20065;-77
2022/04/27 05:54:19;;;;;;;4.45;2.63;;;;;;;8.20;100.00;102570.34;4989331;28;20250;-77
2022/04/27 05:57:02;;;;;;;3.92;2.63;;;;;;;8.23;100.00;102569.59;4994360;28;20048;-79
2022/04/27 05:59:56;;;;;;;9.68;2.67;;;;;;;8.24;100.00;102581.84;5004697;28;20060;-78
2022/04/27 06:02:44;;;;;;;7.78;2.97;;;;;;;8.25;99.09;102579.31;5028648;28;20073;-77
2022/04/27 06:05:16;;;;;;;4.80;2.22;;;;;;;8.26;97.90;102596.88;5009552;28;20041;-77
2022/04/27 06:07:45;;;;;;;5.30;2.50;;;;;;;8.28;97.70;102591.66;4956186;28;20037;-77
2022/04/27 06:10:19;;;;;;;4.90;2.20;;;;;;;8.32;97.12;102590.97;4999558;28;20223;-78
2022/04/27 06:12:55;;;;;;;2.08;1.98;;;;;;;8.36;96.40;102590.25;5008176;28;20037;-77
2022/04/27 06:15:47;;;;;;;7.30;2.20;;;;;;;8.44;96.29;102586.22;5014289;28;20053;-78
2022/04/27 06:18:54;;;;;;;1.88;1.70;;;;;;;8.52;95.42;102597.91;5021883;28;20056;-77
2022/04/27 06:21:23;;;;;;;4.63;1.85;;;;;;;8.58;94.09;102598.19;5042346;28;20033;-79
2022/04/27 06:23:53;;;;;;;5.47;2.00;;;;;;;8.64;93.30;102596.63;4990094;28;20048;-77
2022/04/27 06:26:24;;;;;;;4.85;1.67;;;;;;;8.70;92.40;102597.75;5036498;28;20099;-78
2022/04/27 06:28:53;;;;;;;2.83;1.85;;;;;;;8.76;92.64;102597.09;5004645;28;20060;-78
2022/04/27 06:31:22;;;;;;;4.68;3.10;;;;;;;8.83;92.60;102600.84;5004922;28;20423;-78
2022/04/27 06:33:54;;;;;;;1.80;1.70;;;;;;;8.87;91.55;102606.31;5005746;28;20049;-77
2022/04/27 06:36:23;;;;;;;4.70;1.73;;;;;;;8.93;90.91;102610.91;5008488;28;20037;-78
2022/04/27 06:38:52;;;;;;;2.25;1.88;;;;;;;8.99;90.41;102603.22;4989223;28;20049;-77
2022/04/27 06:41:33;;;;;;;2.00;1.80;;;;;;;9.04;89.79;102608.69;4990642;28;20364;-77
2022/04/27 06:44:20;;;;;;;1.85;1.75;;;;;;;9.10;89.36;102617.69;5028301;28;20273;-77
2022/04/27 06:47:23;;;;;;;4.05;1.90;;;;;;;9.15;88.48;102613.50;5003638;28;20061;-78
2022/04/27 06:50:13;;;;;;;4.65;1.40;;;;;;;9.20;86.39;102613.66;4979388;28;20049;-78
2022/04/27 06:53:02;;;;;;;3.22;1.40;;;;;;;9.23;85.64;102620.78;5006926;28;20064;-77
2022/04/27 06:55:50;;;;;;;2.10;1.52;;;;;;;9.26;85.29;102619.16;4988690;28;20037;-77
2022/04/27 06:58:33;;;;;;;2.08;1.55;;;;;;;9.31;84.47;102624.59;4995310;28;20117;-77
2022/04/27 07:01:17;;;;;;;3.53;1.90;;;;;;;9.34;84.48;102622.97;5019602;28;20525;-78
2022/04/27 07:03:46;;;;;;;3.47;1.90;;;;;;;9.40;84.45;102629.31;4997210;28;20041;-77
2022/04/27 07:06:14;;;;;;;2.75;1.35;;;;;;;9.46;83.90;102629.50;5006120;28;20397;-77
2022/04/27 07:08:43;;;;;;;5.22;2.15;;;;;;;9.49;83.20;102638.41;5003537;28;20041;-77
2022/04/27 07:11:13;;;;;;;7.32;2.20;;;;;;;9.51;82.90;102633.22;4970948;28;20037;-78
2022/04/27 07:13:41;;;;;;;2.25;1.40;;;;;;;9.52;81.82;102635.88;5011815;28;20398;-78
2022/04/27 07:16:10;;;;;;;4.72;2.05;;;;;;;9.54;82.02;102644.72;4991502;28;20041;-77
2022/04/27 07:18:38;;;;;;;9.40;1.90;;;;;;;9.56;81.23;102632.53;4993472;28;20056;-79
2022/04/27 07:21:10;;;;;;;4.68;1.60;;;;;;;9.59;81.26;102644.00;5007841;28;20056;-78
2022/04/27 07:23:39;;;;;;;3.90;1.40;;;;;;;9.59;80.42;102646.66;5007369;28;20049;-77
2022/04/27 07:26:08;;;;;;;3.28;1.88;;;;;;;9.60;80.15;102648.44;4984019;28;20402;-77
2022/04/27 07:28:37;;;;;;;5.10;1.80;;;;;;;9.60;78.72;102648.44;5006876;28;20065;-78
2022/04/27 07:31:05;;;;;;;3.83;2.45;;;;;;;9.60;79.14;102649.31;5003814;28;20046;-78
2022/04/27 07:33:34;;;;;;;4.47;1.65;;;;;;;9.64;79.51;102652.94;5001229;28;20394;-78
2022/04/27 07:36:05;;;;;;;3.85;1.50;;;;;;;9.66;79.09;102648.63;5018212;28;20034;-77
2022/04/27 07:38:34;;;;;;;6.35;1.90;;;;;;;9.67;78.82;102656.59;5007732;28;20041;-77
2022/04/27 07:41:03;;;;;;;6.00;1.80;;;;;;;9.65;77.54;102653.00;4998290;28;20250;-78
2022/04/27 07:43:31;;;;;;;4.65;1.70;;;;;;;9.69;79.04;102661.91;5000115;28;20041;-77
2022/04/27 07:46:05;;;;;;;;;;;;;;;9.70;75.17;102656.72;5008202;28;20030;-78
2022/04/27 07:48:36;;;;;;;8.57;2.10;;;;;;;9.75;78.44;102668.31;5002159;28;20401;-77
2022/04/27 07:51:07;;;;;;;3.78;1.85;;;;;;;9.81;78.18;102656.19;4971817;28;20710;-78
2022/04/27 07:53:36;;;;;;;4.07;1.60;;;;;;;9.86;77.40;102659.88;5020785;28;20517;-78
2022/04/27 07:56:05;;;;;;;6.50;1.50;;;;;;;9.92;77.95;102662.72;4989303;28;20256;-77
2022/04/27 07:58:34;;;;;;;5.03;1.95;;;;;;;9.99;77.16;102663.84;5010106;28;20041;-79
2022/04/27 08:01:09;;;;;;;3.33;1.60;;;;;;;10.04;76.11;102665.81;4992676;28;20058;-78
2022/04/27 08:03:37;;;;;;;5.50;1.73;;;;;;;10.08;75.05;102669.44;5017647;28;20045;-77
2022/04/27 08:06:06;;;;;;;5.88;1.80;;;;;;;10.11;74.59;102677.44;5023287;28;20053;-79
2022/04/27 08:08:35;;;;;;;2.97;1.60;;;;;;;10.15;74.63;102677.59;5005294;28;20053;-77
2022/04/27 08:11:04;;;;;;;2.70;1.20;;;;;;;10.21;75.19;102683.91;5005667;28;20756;-77
2022/04/27 08:13:33;;;;;;;3.35;1.42;;;;;;;10.26;73.90;102683.22;4992163;28;20038;-78
2022/04/27 08:16:02;;;;;;;6.63;1.88;;;;;;;10.29;74.05;102692.97;4995893;28;20297;-78
2022/04/27 08:18:34;;;;;;;4.78;1.73;;;;;;;10.32;74.99;102690.47;4971242;28;20041;-77
2022/04/27 08:21:15;;;;;;;5.68;1.70;;;;;;;10.30;74.16;102690.44;4999035;28;20057;-77
2022/04/27 08:23:48;;;;;;;6.20;1.92;;;;;;;10.32;74.66;102698.38;4996792;28;20057;-78
2022/04/27 08:26:17;;;;;;;3.45;1.67;;;;;;;10.35;74.35;102698.47;5019065;28;20050;-77
2022/04/27 08:28:46;;;;;;;6.30;2.25;;;;;;;10.38;73.50;102690.69;4975433;28;20950;-77
2022/04/27 08:31:17;;;;;;;7.82;2.20;;;;;;;10.36;73.67;102692.38;5022210;28;20076;-77
2022/04/27 08:33:46;;;;;;;5.88;2.22;;;;;;;10.42;75.10;102697.84;5017484;28;20042;-78
2022/04/27 08:36:14;;;;;;;4.63;1.67;;;;;;;10.48;74.06;102702.44;5006177;28;20049;-77
2022/04/27 08:38:58;;;;;;;6.55;1.60;;;;;;;10.49;73.71;102704.19;5024175;28;20060;-78
2022/04/27 08:41:28;;;;;;;2.93;2.10;;;;;;;10.47;73.18;102706.81;4978395;28;20045;-78
2022/04/27 08:43:57;;;;;;;4.68;1.77;;;;;;;10.48;74.01;102700.69;4979571;28;20296;-77
2022/04/27 08:46:28;;;;;;;4.60;1.80;;;;;;;10.49;73.93;102710.41;4994706;28;20049;-77
2022/04/27 08:48:57;;;;;;;4.97;1.98;;;;;;;10.50;73.72;102709.53;5003332;28;20054;-76
2022/04/27 08:51:28;;;;;;;12.00;2.80;;;;;;;10.47;73.27;102711.16;5000247;28;20054;-78
2022/04/27 08:53:57;;;;;;;5.82;2.10;;;;;;;10.48;73.59;102712.97;5026899;28;20053;-77
2022/04/27 08:56:26;;;;;;;6.22;2.10;;;;;;;10.51;73.13;102716.63;5017616;28;20053;-76
2022/04/27 08:58:55;;;;;;;7.78;2.03;;;;;;;10.50;72.89;102719.19;5025385;28;20042;-77
2022/04/27 09:01:23;;;;;;;7.88;1.73;;;;;;;10.49;72.74;102713.03;4961468;28;20413;-77
2022/04/27 09:03:52;;;;;;;5.72;2.45;;;;;;;10.51;73.04;102715.72;4960433;28;20052;-77
2022/04/27 09:06:22;;;;;;;6.18;2.17;;;;;;;10.50;73.24;102725.34;5022731;28;20042;-77
2022/04/27 09:08:55;;;;;;;4.45;1.80;;;;;;;10.52;73.92;102718.38;5026260;28;20619;-78
2022/04/27 09:11:26;;;;;;;4.93;2.35;;;;;;;10.54;72.76;102724.59;5003966;28;20056;-78
2022/04/27 09:13:58;;;;;;;7.75;2.33;;;;;;;10.54;73.04;102721.97;5022943;28;21189;-77
2022/04/27 09:20:46;;;;;;;7.90;2.45;;;;;;;10.55;72.81;102730.78;4985951;28;20042;-78
2022/04/27 09:22:11;;;;;;;6.88;2.28;;;;;;;10.45;72.69;102724.31;5012585;28;20045;-77
2022/04/27 09:24:51;;;;;;;6.65;2.40;;;;;;;10.42;71.76;102731.22;5023657;28;20056;-77
2022/04/27 09:27:24;;;;;;;7.75;2.10;;;;;;;10.41;72.66;102730.31;4983756;28;20371;-79
2022/04/27 09:30:02;;;;;;;6.75;2.15;;;;;;;10.39;72.77;102729.38;5015390;28;20049;-77
2022/04/27 09:32:31;;;;;;;4.00;2.28;;;;;;;10.38;72.33;102726.66;4964699;28;20034;-77
2022/04/27 09:35:02;;;;;;;5.07;2.00;;;;;;;10.38;73.01;102731.94;4998091;28;20048;-77
2022/04/27 09:37:41;;;;;;;7.50;2.10;;;;;;;10.34;73.15;102717.78;4978498;28;20520;-77
2022/04/27 09:40:12;;;;;;;6.80;2.20;;;;;;;10.34;73.42;102725.69;5004919;28;20041;-77
2022/04/27 09:42:45;;;;;;;3.95;2.25;;;;;;;10.36;73.76;102734.53;4985949;28;20513;-78
2022/04/27 09:45:17;;;;;;;7.45;2.70;;;;;;;10.36;73.19;102729.28;4975789;28;20514;-77
2022/04/27 09:48:03;;;;;;;7.25;2.38;;;;;;;10.36;73.26;102733.63;4979401;28;20041;-77
2022/04/27 09:50:58;;;;;;;7.68;2.70;;;;;;;10.32;73.96;102732.63;4987974;28;20056;-78
2022/04/27 09:53:27;;;;;;;5.72;2.35;;;;;;;10.28;74.77;102736.88;4993396;28;20057;-78
2022/04/27 09:55:56;;;;;;;8.45;2.60;;;;;;;10.27;75.40;102736.81;4986130;28;20045;-77
2022/04/27 09:58:26;;;;;;;6.68;2.60;;;;;;;10.25;76.13;102738.53;4999769;28;20490;-77
2022/04/27 10:00:57;;;;;;;4.05;2.47;;;;;;;10.22;76.72;102744.56;4987265;28;20046;-77
2022/04/27 10:03:26;;;;;;;9.20;2.50;;;;;;;10.15;77.04;102743.47;4974449;28;20488;-78
2022/04/27 10:05:54;;;;;;;11.45;2.65;;;;;;;10.12;78.58;102738.06;4968364;28;20053;-78
2022/04/27 10:08:23;;;;;;;8.02;2.55;;;;;;;10.10;78.65;102738.88;5002293;28;20387;-78
2022/04/27 10:10:52;;;;;;;12.77;3.13;;;;;;;10.10;79.84;102741.50;4995448;28;20035;-78
2022/04/27 10:13:27;;;;;;;7.40;2.88;;;;;;;10.08;80.17;102736.19;4967289;28;20225;-78
2022/04/27 10:15:59;;;;;;;12.00;2.83;;;;;;;10.07;80.83;102739.63;4982489;28;20149;-78
2022/04/27 10:18:30;;;;;;;9.68;2.50;;;;;;;10.04;80.87;102742.19;4963137;28;20031;-77
2022/04/27 10:20:59;;;;;;;6.63;2.13;;;;;;;10.06;81.10;102739.63;4973663;28;20054;-77
2022/04/27 10:23:28;;;;;;;7.90;2.20;;;;;;;10.04;80.74;102747.44;5001909;28;20058;-77
2022/04/27 10:26:23;;;;;;;12.73;2.40;;;;;;;10.05;79.69;102733.41;4971622;28;20407;-77
2022/04/27 10:28:56;;;;;;;10.23;2.75;;;;;;;10.08;80.41;102744.09;4975834;28;20031;-77
2022/04/27 10:31:48;;;;;;;10.48;2.45;;;;;;;10.09;79.38;102743.25;4988464;28;20549;-77
2022/04/27 10:34:17;;;;;;;12.85;2.60;;;;;;;10.12;79.77;102740.72;4976647;28;20268;-78
2022/04/27 10:36:49;;;;;;;11.57;2.55;;;;;;;10.20;79.30;102740.97;4972073;28;20054;-78
2022/04/27 10:39:23;;;;;;;5.20;1.98;;;;;;;10.26;79.12;102746.44;4983562;28;20601;-78
2022/04/27 10:42:02;;;;;;;7.07;1.90;;;;;;;10.34;78.54;102746.78;4985363;28;20042;-77
2022/04/27 10:44:50;;;;;;;8.80;2.75;;;;;;;10.40;78.23;102740.81;4968471;28;20039;-77
2022/04/27 10:47:20;;;;;;;11.70;2.92;;;;;;;10.47;78.52;102748.06;4972442;28;20050;-77
2022/04/27 10:50:13;;;;;;;6.47;2.53;;;;;;;10.49;77.15;102747.31;4958351;28;20049;-77
2022/04/27 10:52:55;;;;;;;8.25;2.33;;;;;;;10.51;76.87;102748.25;4979034;28;20488;-76
2022/04/27 10:55:37;;;;;;;7.00;2.35;;;;;;;10.55;77.32;102746.59;4975464;28;20046;-76
2022/04/27 10:58:16;;;;;;;9.18;2.47;;;;;;;10.60;78.13;102750.28;4958500;28;20255;-78
2022/04/27 11:01:02;;;;;;;10.57;2.50;;;;;;;10.73;77.84;102752.47;4934424;28;20180;-76
2022/04/27 11:03:39;;;;;;;11.65;2.67;;;;;;;10.84;77.68;102755.47;4987939;28;20049;-76
2022/04/27 11:06:13;;;;;;;6.60;2.50;;;;;;;10.94;77.02;102751.38;5012480;28;20094;-76
2022/04/27 11:09:08;;;;;;;9.02;2.70;;;;;;;10.95;76.12;102745.28;5007162;28;20057;-77
2022/04/27 11:11:52;;;;;;;9.77;2.80;;;;;;;10.94;76.03;102751.38;5007826;28;20046;-77
2022/04/27 11:14:34;;;;;;;7.25;2.25;;;;;;;10.97;76.33;102751.50;5017434;28;20048;-76
2022/04/27 11:17:03;;;;;;;7.40;2.30;;;;;;;11.01;76.39;102753.38;5009505;28;20037;-79
2022/04/27 11:19:36;;;;;;;16.02;3.00;;;;;;;11.01;76.35;102750.72;4976819;28;20239;-78
2022/04/27 11:22:15;;;;;;;10.38;2.83;;;;;;;10.98;77.17;102753.25;5004381;28;20045;-76
2022/04/27 11:24:50;;;;;;;7.80;2.30;;;;;;;10.91;77.43;102756.56;4992160;28;20720;-77
2022/04/27 11:27:32;;;;;;;5.95;2.20;;;;;;;10.85;77.59;102745.81;5003983;28;20380;-77
2022/04/27 11:30:03;;;;;;;8.00;3.20;;;;;;;10.85;78.49;102766.91;5014504;28;20517;-77
2022/04/27 11:32:31;;;;;;;8.48;2.20;;;;;;;10.78;78.51;102759.66;4997091;28;20490;-77
2022/04/27 11:35:00;;;;;;;8.48;2.88;;;;;;;10.72;78.78;102758.59;4964629;28;20049;-77
2022/04/27 11:37:30;;;;;;;15.10;2.70;;;;;;;10.72;79.10;102768.25;5001550;28;20049;-77
2022/04/27 11:40:20;;;;;;;7.90;3.00;;;;;;;10.70;79.04;102764.69;4989820;28;20048;-77
2022/04/27 11:42:52;;;;;;;8.77;2.40;;;;;;;10.67;78.87;102761.94;5001399;28;20696;-76
2022/04/27 11:45:23;;;;;;;9.43;2.50;;;;;;;10.67;79.12;102770.72;5003337;28;20045;-78
2022/04/27 11:47:58;;;;;;;11.98;2.60;;;;;;;10.69;79.44;102766.41;5018295;28;20050;-77
2022/04/27 11:50:33;;;;;;;10.27;2.60;;;;;;;10.68;79.63;102771.63;4994098;28;20402;-76
2022/04/27 11:53:04;;;;;;;6.97;2.60;;;;;;;10.65;79.55;102771.53;5022917;28;20033;-78
2022/04/27 11:55:34;;;;;;;9.43;2.20;;;;;;;10.65;79.70;102763.63;4984918;28;20065;-78
2022/04/27 11:58:04;;;;;;;8.20;2.50;;;;;;;10.63;79.71;102770.59;5002094;28;20057;-77
2022/04/27 12:00:34;;;;;;;9.95;2.38;;;;;;;10.64;80.08;102775.00;5003251;28;20446;-77
2022/04/27 12:03:04;;;;;;;13.25;2.60;;;;;;;10.67;80.02;102777.75;5002042;28;20061;-77
2022/04/27 12:05:34;;;;;;;;;;;;;;;10.70;80.57;102775.22;4990857;28;20046;-76
2022/04/27 12:08:13;;;;;;;9.70;2.97;;;;;;;10.72;80.29;102773.53;5005423;28;19928;-77
2022/04/27 12:10:43;;;;;;;11.05;2.25;;;;;;;10.77;79.97;102781.59;4971880;28;20648;-77